sensor_id;sensor_type;location;lat;lon;timestamp;P1;durP1;ratioP1;P2;durP2;ratioP2
11970;SDS011;6045;42.682;23.294;2024-01-06T00:00:10;32.03;;;19.37;;
11970;SDS011;6045;42.682;23.294;2024-01-06T00:02:38;35.17;;;22.00;;
11970;SDS011;6045;42.682;23.294;2024-01-06T00:05:07;42.03;;;22.17;;
11970;SDS011;6045;42.682;23.294;2024-01-06T00:07:34;38.93;;;22.37;;
11970;SDS011;6045;42.682;23.294;2024-01-06T00:10:01;39.77;;;21.60;;
11970;SDS011;6045;42.682;23.294;2024-01-06T00:12:28;43.10;;;23.90;;
11970;SDS011;6045;42.682;23.294;2024-01-06T00:14:55;45.13;;;23.50;;
11970;SDS011;6045;42.682;23.294;2024-01-06T00:17:22;35.03;;;19.63;;
11970;SDS011;6045;42.682;23.294;2024-01-06T00:19:49;40.60;;;22.23;;
11970;SDS011;6045;42.682;23.294;2024-01-06T00:22:18;43.63;;;24.80;;
11970;SDS011;6045;42.682;23.294;2024-01-06T00:24:46;43.40;;;24.17;;
11970;SDS011;6045;42.682;23.294;2024-01-06T00:27:13;44.00;;;24.50;;
11970;SDS011;6045;42.682;23.294;2024-01-06T00:29:41;42.03;;;23.53;;
11970;SDS011;6045;42.682;23.294;2024-01-06T00:32:08;48.03;;;26.13;;
11970;SDS011;6045;42.682;23.294;2024-01-06T00:34:35;45.10;;;27.17;;
11970;SDS011;6045;42.682;23.294;2024-01-06T00:37:02;48.37;;;27.27;;
11970;SDS011;6045;42.682;23.294;2024-01-06T00:39:30;47.17;;;27.60;;
11970;SDS011;6045;42.682;23.294;2024-01-06T00:41:57;51.60;;;29.90;;
11970;SDS011;6045;42.682;23.294;2024-01-06T00:44:24;51.87;;;30.10;;
11970;SDS011;6045;42.682;23.294;2024-01-06T00:46:51;55.00;;;31.77;;
11970;SDS011;6045;42.682;23.294;2024-01-06T00:49:18;55.20;;;31.00;;
11970;SDS011;6045;42.682;23.294;2024-01-06T00:51:45;56.40;;;31.87;;
11970;SDS011;6045;42.682;23.294;2024-01-06T00:54:12;57.77;;;32.97;;
11970;SDS011;6045;42.682;23.294;2024-01-06T00:56:40;56.27;;;30.83;;
11970;SDS011;6045;42.682;23.294;2024-01-06T00:59:08;56.70;;;32.43;;
11970;SDS011;6045;42.682;23.294;2024-01-06T01:01:35;54.53;;;31.73;;
11970;SDS011;6045;42.682;23.294;2024-01-06T01:04:02;55.17;;;31.13;;
11970;SDS011;6045;42.682;23.294;2024-01-06T01:06:29;51.53;;;29.33;;
11970;SDS011;6045;42.682;23.294;2024-01-06T01:08:55;54.27;;;28.97;;
11970;SDS011;6045;42.682;23.294;2024-01-06T01:11:21;59.03;;;30.53;;
11970;SDS011;6045;42.682;23.294;2024-01-06T01:13:50;50.80;;;29.63;;
11970;SDS011;6045;42.682;23.294;2024-01-06T01:16:17;50.07;;;28.40;;
11970;SDS011;6045;42.682;23.294;2024-01-06T01:18:43;49.93;;;27.07;;
11970;SDS011;6045;42.682;23.294;2024-01-06T01:21:10;49.67;;;27.50;;
11970;SDS011;6045;42.682;23.294;2024-01-06T01:23:37;52.83;;;28.87;;
11970;SDS011;6045;42.682;23.294;2024-01-06T01:26:04;51.90;;;28.20;;
11970;SDS011;6045;42.682;23.294;2024-01-06T01:28:31;51.87;;;28.60;;
11970;SDS011;6045;42.682;23.294;2024-01-06T01:31:00;54.33;;;28.63;;
11970;SDS011;6045;42.682;23.294;2024-01-06T01:33:29;46.97;;;27.93;;
11970;SDS011;6045;42.682;23.294;2024-01-06T01:35:56;47.60;;;27.70;;
11970;SDS011;6045;42.682;23.294;2024-01-06T01:38:23;45.80;;;27.03;;
11970;SDS011;6045;42.682;23.294;2024-01-06T01:40:50;44.87;;;25.90;;
11970;SDS011;6045;42.682;23.294;2024-01-06T01:43:17;47.77;;;27.17;;
11970;SDS011;6045;42.682;23.294;2024-01-06T01:45:44;42.67;;;25.23;;
11970;SDS011;6045;42.682;23.294;2024-01-06T01:48:16;45.33;;;26.90;;
11970;SDS011;6045;42.682;23.294;2024-01-06T01:50:43;49.63;;;27.17;;
11970;SDS011;6045;42.682;23.294;2024-01-06T01:53:10;42.37;;;25.27;;
11970;SDS011;6045;42.682;23.294;2024-01-06T01:55:38;45.73;;;26.70;;
11970;SDS011;6045;42.682;23.294;2024-01-06T01:58:06;48.17;;;25.73;;
11970;SDS011;6045;42.682;23.294;2024-01-06T02:00:38;42.60;;;24.80;;
11970;SDS011;6045;42.682;23.294;2024-01-06T02:03:05;41.90;;;23.77;;
11970;SDS011;6045;42.682;23.294;2024-01-06T02:05:35;43.77;;;25.23;;
11970;SDS011;6045;42.682;23.294;2024-01-06T02:08:02;40.37;;;23.47;;
11970;SDS011;6045;42.682;23.294;2024-01-06T02:10:29;45.47;;;24.50;;
11970;SDS011;6045;42.682;23.294;2024-01-06T02:12:56;50.63;;;24.43;;
11970;SDS011;6045;42.682;23.294;2024-01-06T02:15:23;50.20;;;24.60;;
11970;SDS011;6045;42.682;23.294;2024-01-06T02:17:50;44.50;;;24.23;;
11970;SDS011;6045;42.682;23.294;2024-01-06T02:20:17;38.80;;;23.03;;
11970;SDS011;6045;42.682;23.294;2024-01-06T02:22:50;36.50;;;21.50;;
11970;SDS011;6045;42.682;23.294;2024-01-06T02:25:16;39.33;;;22.43;;
11970;SDS011;6045;42.682;23.294;2024-01-06T02:27:44;44.77;;;23.17;;
11970;SDS011;6045;42.682;23.294;2024-01-06T02:30:11;38.70;;;21.73;;
11970;SDS011;6045;42.682;23.294;2024-01-06T02:32:38;44.43;;;20.93;;
11970;SDS011;6045;42.682;23.294;2024-01-06T02:35:05;39.80;;;21.90;;
11970;SDS011;6045;42.682;23.294;2024-01-06T02:37:33;39.10;;;22.97;;
11970;SDS011;6045;42.682;23.294;2024-01-06T02:40:02;42.37;;;24.20;;
11970;SDS011;6045;42.682;23.294;2024-01-06T02:42:29;40.77;;;22.83;;
11970;SDS011;6045;42.682;23.294;2024-01-06T02:44:56;38.57;;;20.87;;
11970;SDS011;6045;42.682;23.294;2024-01-06T02:47:23;36.60;;;21.50;;
11970;SDS011;6045;42.682;23.294;2024-01-06T02:49:50;31.57;;;18.97;;
11970;SDS011;6045;42.682;23.294;2024-01-06T02:52:16;32.03;;;18.30;;
11970;SDS011;6045;42.682;23.294;2024-01-06T02:54:43;38.80;;;20.57;;
11970;SDS011;6045;42.682;23.294;2024-01-06T02:57:12;35.70;;;20.40;;
11970;SDS011;6045;42.682;23.294;2024-01-06T02:59:39;38.27;;;20.70;;
11970;SDS011;6045;42.682;23.294;2024-01-06T03:02:06;33.70;;;19.63;;
11970;SDS011;6045;42.682;23.294;2024-01-06T03:04:36;34.40;;;20.87;;
11970;SDS011;6045;42.682;23.294;2024-01-06T03:07:03;30.63;;;19.17;;
11970;SDS011;6045;42.682;23.294;2024-01-06T03:09:30;34.93;;;19.47;;
11970;SDS011;6045;42.682;23.294;2024-01-06T03:11:57;36.17;;;19.77;;
11970;SDS011;6045;42.682;23.294;2024-01-06T03:14:25;41.10;;;20.37;;
11970;SDS011;6045;42.682;23.294;2024-01-06T03:16:52;29.60;;;17.00;;
11970;SDS011;6045;42.682;23.294;2024-01-06T03:19:19;25.97;;;15.77;;
11970;SDS011;6045;42.682;23.294;2024-01-06T03:21:51;33.23;;;19.17;;
11970;SDS011;6045;42.682;23.294;2024-01-06T03:24:18;29.67;;;16.73;;
11970;SDS011;6045;42.682;23.294;2024-01-06T03:26:44;27.03;;;15.53;;
11970;SDS011;6045;42.682;23.294;2024-01-06T03:29:14;29.43;;;16.13;;
11970;SDS011;6045;42.682;23.294;2024-01-06T03:31:43;26.93;;;15.20;;
11970;SDS011;6045;42.682;23.294;2024-01-06T03:34:10;27.03;;;15.03;;
11970;SDS011;6045;42.682;23.294;2024-01-06T03:36:37;19.40;;;12.10;;
11970;SDS011;6045;42.682;23.294;2024-01-06T03:39:04;21.57;;;12.30;;
11970;SDS011;6045;42.682;23.294;2024-01-06T03:41:31;25.43;;;13.03;;
11970;SDS011;6045;42.682;23.294;2024-01-06T03:43:58;21.00;;;12.40;;
11970;SDS011;6045;42.682;23.294;2024-01-06T03:46:25;20.03;;;12.30;;
11970;SDS011;6045;42.682;23.294;2024-01-06T03:48:54;22.33;;;12.83;;
11970;SDS011;6045;42.682;23.294;2024-01-06T03:51:21;21.03;;;13.07;;
11970;SDS011;6045;42.682;23.294;2024-01-06T03:53:48;28.00;;;13.63;;
11970;SDS011;6045;42.682;23.294;2024-01-06T03:56:15;24.43;;;13.67;;
11970;SDS011;6045;42.682;23.294;2024-01-06T03:58:42;24.53;;;13.30;;
11970;SDS011;6045;42.682;23.294;2024-01-06T04:01:09;27.40;;;13.10;;
11970;SDS011;6045;42.682;23.294;2024-01-06T04:03:36;21.87;;;12.20;;
11970;SDS011;6045;42.682;23.294;2024-01-06T04:06:05;23.37;;;12.47;;
11970;SDS011;6045;42.682;23.294;2024-01-06T04:08:32;19.80;;;10.60;;
11970;SDS011;6045;42.682;23.294;2024-01-06T04:10:59;19.47;;;11.07;;
11970;SDS011;6045;42.682;23.294;2024-01-06T04:13:26;18.60;;;11.43;;
11970;SDS011;6045;42.682;23.294;2024-01-06T04:15:53;16.67;;;11.00;;
11970;SDS011;6045;42.682;23.294;2024-01-06T04:18:20;17.90;;;10.60;;
11970;SDS011;6045;42.682;23.294;2024-01-06T04:20:47;16.60;;;10.20;;
11970;SDS011;6045;42.682;23.294;2024-01-06T04:23:15;20.53;;;11.47;;
11970;SDS011;6045;42.682;23.294;2024-01-06T04:25:42;16.97;;;11.40;;
11970;SDS011;6045;42.682;23.294;2024-01-06T04:28:12;16.80;;;10.70;;
11970;SDS011;6045;42.682;23.294;2024-01-06T04:30:39;15.70;;;9.30;;
11970;SDS011;6045;42.682;23.294;2024-01-06T04:33:06;15.93;;;10.03;;
11970;SDS011;6045;42.682;23.294;2024-01-06T04:35:33;17.33;;;10.47;;
11970;SDS011;6045;42.682;23.294;2024-01-06T04:37:59;21.37;;;11.53;;
11970;SDS011;6045;42.682;23.294;2024-01-06T04:40:28;14.87;;;10.43;;
11970;SDS011;6045;42.682;23.294;2024-01-06T04:42:55;16.57;;;10.60;;
11970;SDS011;6045;42.682;23.294;2024-01-06T04:45:25;19.57;;;11.57;;
11970;SDS011;6045;42.682;23.294;2024-01-06T04:47:52;18.43;;;10.97;;
11970;SDS011;6045;42.682;23.294;2024-01-06T04:50:19;20.87;;;11.53;;
11970;SDS011;6045;42.682;23.294;2024-01-06T04:52:46;18.83;;;11.87;;
11970;SDS011;6045;42.682;23.294;2024-01-06T04:55:13;17.60;;;10.60;;
11970;SDS011;6045;42.682;23.294;2024-01-06T04:57:41;19.43;;;11.33;;
11970;SDS011;6045;42.682;23.294;2024-01-06T05:00:08;21.47;;;11.33;;
11970;SDS011;6045;42.682;23.294;2024-01-06T05:02:37;23.70;;;12.03;;
11970;SDS011;6045;42.682;23.294;2024-01-06T05:05:04;18.57;;;10.97;;
11970;SDS011;6045;42.682;23.294;2024-01-06T05:07:31;20.57;;;11.93;;
11970;SDS011;6045;42.682;23.294;2024-01-06T05:09:58;22.93;;;12.50;;
11970;SDS011;6045;42.682;23.294;2024-01-06T05:12:25;24.97;;;12.93;;
11970;SDS011;6045;42.682;23.294;2024-01-06T05:14:53;19.97;;;12.17;;
11970;SDS011;6045;42.682;23.294;2024-01-06T05:17:20;23.00;;;13.47;;
11970;SDS011;6045;42.682;23.294;2024-01-06T05:19:47;19.67;;;12.10;;
11970;SDS011;6045;42.682;23.294;2024-01-06T05:22:14;21.93;;;11.63;;
11970;SDS011;6045;42.682;23.294;2024-01-06T05:24:41;21.83;;;13.20;;
11970;SDS011;6045;42.682;23.294;2024-01-06T05:27:08;18.80;;;12.03;;
11970;SDS011;6045;42.682;23.294;2024-01-06T05:29:34;17.87;;;11.50;;
11970;SDS011;6045;42.682;23.294;2024-01-06T05:32:03;31.13;;;12.30;;
11970;SDS011;6045;42.682;23.294;2024-01-06T05:34:30;17.77;;;10.37;;
11970;SDS011;6045;42.682;23.294;2024-01-06T05:36:57;22.23;;;11.53;;
11970;SDS011;6045;42.682;23.294;2024-01-06T05:39:24;24.10;;;11.13;;
11970;SDS011;6045;42.682;23.294;2024-01-06T05:41:51;17.43;;;10.00;;
11970;SDS011;6045;42.682;23.294;2024-01-06T05:44:18;17.50;;;10.57;;
11970;SDS011;6045;42.682;23.294;2024-01-06T05:46:45;18.90;;;11.07;;
11970;SDS011;6045;42.682;23.294;2024-01-06T05:49:13;15.67;;;9.17;;
11970;SDS011;6045;42.682;23.294;2024-01-06T05:51:43;16.30;;;10.10;;
11970;SDS011;6045;42.682;23.294;2024-01-06T05:54:11;17.07;;;10.17;;
11970;SDS011;6045;42.682;23.294;2024-01-06T05:56:38;17.40;;;10.60;;
11970;SDS011;6045;42.682;23.294;2024-01-06T05:59:05;15.43;;;9.27;;
11970;SDS011;6045;42.682;23.294;2024-01-06T06:01:32;16.33;;;10.70;;
11970;SDS011;6045;42.682;23.294;2024-01-06T06:03:59;17.17;;;9.23;;
11970;SDS011;6045;42.682;23.294;2024-01-06T06:06:27;11.83;;;7.50;;
11970;SDS011;6045;42.682;23.294;2024-01-06T06:08:54;11.83;;;7.27;;
11970;SDS011;6045;42.682;23.294;2024-01-06T06:11:21;11.50;;;7.27;;
11970;SDS011;6045;42.682;23.294;2024-01-06T06:13:48;16.10;;;8.40;;
11970;SDS011;6045;42.682;23.294;2024-01-06T06:16:15;9.87;;;6.17;;
11970;SDS011;6045;42.682;23.294;2024-01-06T06:18:42;11.50;;;7.20;;
11970;SDS011;6045;42.682;23.294;2024-01-06T06:21:09;9.10;;;6.17;;
11970;SDS011;6045;42.682;23.294;2024-01-06T06:23:37;11.27;;;7.53;;
11970;SDS011;6045;42.682;23.294;2024-01-06T06:26:05;12.40;;;7.20;;
11970;SDS011;6045;42.682;23.294;2024-01-06T06:28:33;13.23;;;7.50;;
11970;SDS011;6045;42.682;23.294;2024-01-06T06:31:00;9.67;;;6.87;;
11970;SDS011;6045;42.682;23.294;2024-01-06T06:33:28;12.00;;;7.37;;
11970;SDS011;6045;42.682;23.294;2024-01-06T06:35:55;11.23;;;7.30;;
11970;SDS011;6045;42.682;23.294;2024-01-06T06:38:22;13.53;;;6.87;;
11970;SDS011;6045;42.682;23.294;2024-01-06T06:40:50;11.57;;;7.00;;
11970;SDS011;6045;42.682;23.294;2024-01-06T06:43:17;10.47;;;7.30;;
11970;SDS011;6045;42.682;23.294;2024-01-06T06:45:44;12.40;;;7.87;;
11970;SDS011;6045;42.682;23.294;2024-01-06T06:48:11;13.20;;;7.70;;
11970;SDS011;6045;42.682;23.294;2024-01-06T06:50:41;11.63;;;7.17;;
11970;SDS011;6045;42.682;23.294;2024-01-06T06:53:08;10.63;;;6.50;;
11970;SDS011;6045;42.682;23.294;2024-01-06T06:55:35;11.53;;;6.57;;
11970;SDS011;6045;42.682;23.294;2024-01-06T06:58:04;13.73;;;6.97;;
11970;SDS011;6045;42.682;23.294;2024-01-06T07:00:31;13.40;;;6.47;;
11970;SDS011;6045;42.682;23.294;2024-01-06T07:02:58;13.10;;;7.20;;
11970;SDS011;6045;42.682;23.294;2024-01-06T07:05:25;11.53;;;7.50;;
11970;SDS011;6045;42.682;23.294;2024-01-06T07:07:52;15.80;;;6.17;;
11970;SDS011;6045;42.682;23.294;2024-01-06T07:10:19;10.70;;;6.90;;
11970;SDS011;6045;42.682;23.294;2024-01-06T07:12:46;11.60;;;7.00;;
11970;SDS011;6045;42.682;23.294;2024-01-06T07:15:14;10.70;;;6.27;;
11970;SDS011;6045;42.682;23.294;2024-01-06T07:17:41;12.33;;;7.03;;
11970;SDS011;6045;42.682;23.294;2024-01-06T07:20:09;18.30;;;10.23;;
11970;SDS011;6045;42.682;23.294;2024-01-06T07:22:38;14.73;;;8.80;;
11970;SDS011;6045;42.682;23.294;2024-01-06T07:25:06;12.17;;;8.60;;
11970;SDS011;6045;42.682;23.294;2024-01-06T07:27:33;13.00;;;8.07;;
11970;SDS011;6045;42.682;23.294;2024-01-06T07:30:00;18.63;;;8.87;;
11970;SDS011;6045;42.682;23.294;2024-01-06T07:32:28;16.07;;;8.83;;
11970;SDS011;6045;42.682;23.294;2024-01-06T07:34:58;17.90;;;8.87;;
11970;SDS011;6045;42.682;23.294;2024-01-06T07:37:25;10.80;;;8.20;;
11970;SDS011;6045;42.682;23.294;2024-01-06T07:39:52;14.07;;;8.37;;
11970;SDS011;6045;42.682;23.294;2024-01-06T07:42:19;12.07;;;7.57;;
11970;SDS011;6045;42.682;23.294;2024-01-06T07:44:47;15.00;;;8.80;;
11970;SDS011;6045;42.682;23.294;2024-01-06T07:47:14;14.07;;;7.27;;
11970;SDS011;6045;42.682;23.294;2024-01-06T07:49:42;15.00;;;8.47;;
11970;SDS011;6045;42.682;23.294;2024-01-06T07:52:09;14.00;;;7.80;;
11970;SDS011;6045;42.682;23.294;2024-01-06T07:54:36;13.03;;;8.03;;
11970;SDS011;6045;42.682;23.294;2024-01-06T07:57:03;10.40;;;7.50;;
11970;SDS011;6045;42.682;23.294;2024-01-06T07:59:30;11.57;;;7.37;;
11970;SDS011;6045;42.682;23.294;2024-01-06T08:01:58;13.20;;;7.13;;
11970;SDS011;6045;42.682;23.294;2024-01-06T08:04:25;10.17;;;5.83;;
11970;SDS011;6045;42.682;23.294;2024-01-06T08:06:56;13.10;;;7.20;;
11970;SDS011;6045;42.682;23.294;2024-01-06T08:09:23;12.97;;;6.90;;
11970;SDS011;6045;42.682;23.294;2024-01-06T08:11:50;12.80;;;7.50;;
11970;SDS011;6045;42.682;23.294;2024-01-06T08:14:17;12.37;;;6.57;;
11970;SDS011;6045;42.682;23.294;2024-01-06T08:16:43;13.10;;;6.90;;
11970;SDS011;6045;42.682;23.294;2024-01-06T08:19:11;11.57;;;7.97;;
11970;SDS011;6045;42.682;23.294;2024-01-06T08:21:38;15.30;;;7.57;;
11970;SDS011;6045;42.682;23.294;2024-01-06T08:24:07;11.23;;;6.63;;
11970;SDS011;6045;42.682;23.294;2024-01-06T08:26:34;13.87;;;8.10;;
11970;SDS011;6045;42.682;23.294;2024-01-06T08:29:00;11.73;;;7.80;;
11970;SDS011;6045;42.682;23.294;2024-01-06T08:31:27;10.17;;;8.13;;
11970;SDS011;6045;42.682;23.294;2024-01-06T08:33:53;12.57;;;8.07;;
11970;SDS011;6045;42.682;23.294;2024-01-06T08:36:20;13.50;;;8.03;;
11970;SDS011;6045;42.682;23.294;2024-01-06T08:38:48;18.60;;;11.60;;
11970;SDS011;6045;42.682;23.294;2024-01-06T08:41:16;21.03;;;13.47;;
11970;SDS011;6045;42.682;23.294;2024-01-06T08:43:43;21.90;;;13.67;;
11970;SDS011;6045;42.682;23.294;2024-01-06T08:46:10;26.77;;;15.40;;
11970;SDS011;6045;42.682;23.294;2024-01-06T08:48:37;26.87;;;16.20;;
11970;SDS011;6045;42.682;23.294;2024-01-06T08:51:04;34.97;;;18.97;;
11970;SDS011;6045;42.682;23.294;2024-01-06T08:53:31;32.03;;;18.00;;
11970;SDS011;6045;42.682;23.294;2024-01-06T08:55:58;28.50;;;18.53;;
11970;SDS011;6045;42.682;23.294;2024-01-06T08:58:26;36.00;;;20.53;;
11970;SDS011;6045;42.682;23.294;2024-01-06T09:00:53;33.37;;;20.97;;
11970;SDS011;6045;42.682;23.294;2024-01-06T09:03:20;33.23;;;21.90;;
11970;SDS011;6045;42.682;23.294;2024-01-06T09:05:51;31.93;;;21.77;;
11970;SDS011;6045;42.682;23.294;2024-01-06T09:08:18;31.20;;;20.63;;
11970;SDS011;6045;42.682;23.294;2024-01-06T09:10:45;33.43;;;21.70;;
11970;SDS011;6045;42.682;23.294;2024-01-06T09:13:12;39.97;;;21.17;;
11970;SDS011;6045;42.682;23.294;2024-01-06T09:15:41;37.93;;;22.07;;
11970;SDS011;6045;42.682;23.294;2024-01-06T09:18:08;42.07;;;23.83;;
11970;SDS011;6045;42.682;23.294;2024-01-06T09:20:35;36.73;;;22.93;;
11970;SDS011;6045;42.682;23.294;2024-01-06T09:23:04;33.77;;;21.17;;
11970;SDS011;6045;42.682;23.294;2024-01-06T09:25:31;31.60;;;21.87;;
11970;SDS011;6045;42.682;23.294;2024-01-06T09:27:57;36.00;;;21.60;;
11970;SDS011;6045;42.682;23.294;2024-01-06T09:30:24;31.73;;;19.63;;
11970;SDS011;6045;42.682;23.294;2024-01-06T09:32:54;31.47;;;20.60;;
11970;SDS011;6045;42.682;23.294;2024-01-06T09:35:20;32.07;;;20.30;;
11970;SDS011;6045;42.682;23.294;2024-01-06T09:37:48;32.53;;;20.17;;
11970;SDS011;6045;42.682;23.294;2024-01-06T09:40:17;31.07;;;20.17;;
11970;SDS011;6045;42.682;23.294;2024-01-06T09:42:48;35.57;;;19.13;;
11970;SDS011;6045;42.682;23.294;2024-01-06T09:45:15;33.60;;;20.70;;
11970;SDS011;6045;42.682;23.294;2024-01-06T09:47:42;32.60;;;19.90;;
11970;SDS011;6045;42.682;23.294;2024-01-06T09:50:18;30.73;;;19.97;;
11970;SDS011;6045;42.682;23.294;2024-01-06T09:52:46;25.47;;;18.53;;
11970;SDS011;6045;42.682;23.294;2024-01-06T09:55:20;29.37;;;20.30;;
11970;SDS011;6045;42.682;23.294;2024-01-06T09:57:52;29.27;;;19.37;;
11970;SDS011;6045;42.682;23.294;2024-01-06T10:00:19;32.40;;;20.10;;
11970;SDS011;6045;42.682;23.294;2024-01-06T10:02:46;34.00;;;21.33;;
11970;SDS011;6045;42.682;23.294;2024-01-06T10:05:14;34.30;;;20.13;;
11970;SDS011;6045;42.682;23.294;2024-01-06T10:07:43;29.30;;;20.03;;
11970;SDS011;6045;42.682;23.294;2024-01-06T10:10:14;23.43;;;15.87;;
11970;SDS011;6045;42.682;23.294;2024-01-06T10:12:41;24.73;;;16.23;;
11970;SDS011;6045;42.682;23.294;2024-01-06T10:15:09;22.80;;;15.27;;
11970;SDS011;6045;42.682;23.294;2024-01-06T10:17:36;35.70;;;20.43;;
11970;SDS011;6045;42.682;23.294;2024-01-06T10:20:06;32.40;;;21.07;;
11970;SDS011;6045;42.682;23.294;2024-01-06T10:22:35;31.70;;;18.97;;
11970;SDS011;6045;42.682;23.294;2024-01-06T10:25:03;34.13;;;20.43;;
11970;SDS011;6045;42.682;23.294;2024-01-06T10:27:33;33.20;;;19.83;;
11970;SDS011;6045;42.682;23.294;2024-01-06T10:30:00;32.13;;;19.60;;
11970;SDS011;6045;42.682;23.294;2024-01-06T10:32:30;28.20;;;17.97;;
11970;SDS011;6045;42.682;23.294;2024-01-06T10:34:57;31.87;;;17.77;;
11970;SDS011;6045;42.682;23.294;2024-01-06T10:37:25;31.80;;;16.43;;
11970;SDS011;6045;42.682;23.294;2024-01-06T10:40:06;25.30;;;15.73;;
11970;SDS011;6045;42.682;23.294;2024-01-06T10:42:33;21.70;;;14.60;;
11970;SDS011;6045;42.682;23.294;2024-01-06T10:45:01;22.60;;;14.37;;
11970;SDS011;6045;42.682;23.294;2024-01-06T10:47:29;21.23;;;13.13;;
11970;SDS011;6045;42.682;23.294;2024-01-06T10:49:59;25.27;;;14.33;;
11970;SDS011;6045;42.682;23.294;2024-01-06T10:52:26;21.17;;;14.80;;
11970;SDS011;6045;42.682;23.294;2024-01-06T10:54:54;23.10;;;14.77;;
11970;SDS011;6045;42.682;23.294;2024-01-06T10:57:23;24.50;;;14.77;;
11970;SDS011;6045;42.682;23.294;2024-01-06T10:59:51;20.57;;;14.07;;
11970;SDS011;6045;42.682;23.294;2024-01-06T11:02:19;24.27;;;14.97;;
11970;SDS011;6045;42.682;23.294;2024-01-06T11:04:46;21.83;;;14.47;;
11970;SDS011;6045;42.682;23.294;2024-01-06T11:07:16;21.73;;;14.50;;
11970;SDS011;6045;42.682;23.294;2024-01-06T11:09:46;21.43;;;13.63;;
11970;SDS011;6045;42.682;23.294;2024-01-06T11:12:19;19.87;;;12.67;;
11970;SDS011;6045;42.682;23.294;2024-01-06T11:14:47;22.93;;;11.83;;
11970;SDS011;6045;42.682;23.294;2024-01-06T11:17:20;18.20;;;12.30;;
11970;SDS011;6045;42.682;23.294;2024-01-06T11:20:18;19.70;;;11.43;;
11970;SDS011;6045;42.682;23.294;2024-01-06T11:22:48;22.27;;;12.30;;
11970;SDS011;6045;42.682;23.294;2024-01-06T11:25:16;18.87;;;11.50;;
11970;SDS011;6045;42.682;23.294;2024-01-06T11:27:44;16.30;;;10.37;;
11970;SDS011;6045;42.682;23.294;2024-01-06T11:30:21;20.93;;;10.40;;
11970;SDS011;6045;42.682;23.294;2024-01-06T11:32:50;14.63;;;10.53;;
11970;SDS011;6045;42.682;23.294;2024-01-06T11:35:18;17.93;;;10.57;;
11970;SDS011;6045;42.682;23.294;2024-01-06T11:37:53;16.67;;;11.43;;
11970;SDS011;6045;42.682;23.294;2024-01-06T11:40:23;17.43;;;10.43;;
11970;SDS011;6045;42.682;23.294;2024-01-06T11:43:09;12.40;;;8.13;;
11970;SDS011;6045;42.682;23.294;2024-01-06T11:45:40;12.60;;;9.17;;
11970;SDS011;6045;42.682;23.294;2024-01-06T11:48:08;15.30;;;8.90;;
11970;SDS011;6045;42.682;23.294;2024-01-06T11:50:37;10.60;;;8.93;;
11970;SDS011;6045;42.682;23.294;2024-01-06T11:53:06;10.90;;;8.17;;
11970;SDS011;6045;42.682;23.294;2024-01-06T11:55:35;13.10;;;8.57;;
11970;SDS011;6045;42.682;23.294;2024-01-06T11:58:07;14.10;;;8.47;;
11970;SDS011;6045;42.682;23.294;2024-01-06T12:00:34;15.30;;;8.60;;
11970;SDS011;6045;42.682;23.294;2024-01-06T12:03:05;13.07;;;8.07;;
11970;SDS011;6045;42.682;23.294;2024-01-06T12:05:32;9.20;;;6.30;;
11970;SDS011;6045;42.682;23.294;2024-01-06T12:08:00;13.17;;;7.30;;
11970;SDS011;6045;42.682;23.294;2024-01-06T12:10:30;8.80;;;6.23;;
11970;SDS011;6045;42.682;23.294;2024-01-06T12:12:58;12.37;;;6.87;;
11970;SDS011;6045;42.682;23.294;2024-01-06T12:15:26;10.67;;;6.10;;
11970;SDS011;6045;42.682;23.294;2024-01-06T12:17:54;8.13;;;5.50;;
11970;SDS011;6045;42.682;23.294;2024-01-06T12:20:22;10.33;;;5.93;;
11970;SDS011;6045;42.682;23.294;2024-01-06T12:22:51;7.27;;;5.97;;
11970;SDS011;6045;42.682;23.294;2024-01-06T12:25:20;9.73;;;6.40;;
11970;SDS011;6045;42.682;23.294;2024-01-06T12:27:48;10.20;;;5.50;;
11970;SDS011;6045;42.682;23.294;2024-01-06T12:30:15;9.70;;;5.00;;
11970;SDS011;6045;42.682;23.294;2024-01-06T12:32:44;7.43;;;5.07;;
11970;SDS011;6045;42.682;23.294;2024-01-06T12:35:12;8.97;;;5.50;;
11970;SDS011;6045;42.682;23.294;2024-01-06T12:37:42;6.17;;;5.00;;
11970;SDS011;6045;42.682;23.294;2024-01-06T12:40:10;8.67;;;6.10;;
11970;SDS011;6045;42.682;23.294;2024-01-06T12:42:38;12.73;;;6.07;;
11970;SDS011;6045;42.682;23.294;2024-01-06T12:45:07;12.37;;;6.57;;
11970;SDS011;6045;42.682;23.294;2024-01-06T12:47:38;12.10;;;6.60;;
11970;SDS011;6045;42.682;23.294;2024-01-06T12:50:06;11.73;;;6.80;;
11970;SDS011;6045;42.682;23.294;2024-01-06T12:52:34;13.20;;;6.40;;
11970;SDS011;6045;42.682;23.294;2024-01-06T12:55:02;12.27;;;6.37;;
11970;SDS011;6045;42.682;23.294;2024-01-06T12:57:32;11.10;;;7.00;;
11970;SDS011;6045;42.682;23.294;2024-01-06T13:00:00;10.13;;;6.80;;
11970;SDS011;6045;42.682;23.294;2024-01-06T13:02:28;13.83;;;6.63;;
11970;SDS011;6045;42.682;23.294;2024-01-06T13:04:55;12.03;;;7.37;;
11970;SDS011;6045;42.682;23.294;2024-01-06T13:07:22;12.10;;;5.97;;
11970;SDS011;6045;42.682;23.294;2024-01-06T13:09:48;11.40;;;6.63;;
11970;SDS011;6045;42.682;23.294;2024-01-06T13:12:17;11.63;;;6.25;;
11970;SDS011;6045;42.682;23.294;2024-01-06T13:14:45;8.82;;;6.00;;
11970;SDS011;6045;42.682;23.294;2024-01-06T13:17:12;11.88;;;6.03;;
11970;SDS011;6045;42.682;23.294;2024-01-06T13:19:40;9.48;;;5.57;;
11970;SDS011;6045;42.682;23.294;2024-01-06T13:22:07;9.82;;;5.70;;
11970;SDS011;6045;42.682;23.294;2024-01-06T13:24:34;9.82;;;6.47;;
11970;SDS011;6045;42.682;23.294;2024-01-06T13:27:01;9.77;;;5.18;;
11970;SDS011;6045;42.682;23.294;2024-01-06T13:29:29;7.88;;;5.03;;
11970;SDS011;6045;42.682;23.294;2024-01-06T13:31:57;7.53;;;4.82;;
11970;SDS011;6045;42.682;23.294;2024-01-06T13:34:24;7.45;;;4.20;;
11970;SDS011;6045;42.682;23.294;2024-01-06T13:36:51;7.65;;;4.18;;
11970;SDS011;6045;42.682;23.294;2024-01-06T13:39:18;6.78;;;3.90;;
11970;SDS011;6045;42.682;23.294;2024-01-06T13:41:46;5.68;;;4.20;;
11970;SDS011;6045;42.682;23.294;2024-01-06T13:44:13;6.75;;;4.15;;
11970;SDS011;6045;42.682;23.294;2024-01-06T13:46:42;5.47;;;4.13;;
11970;SDS011;6045;42.682;23.294;2024-01-06T13:49:10;6.78;;;4.45;;
11970;SDS011;6045;42.682;23.294;2024-01-06T13:51:37;6.20;;;4.68;;
11970;SDS011;6045;42.682;23.294;2024-01-06T13:54:04;8.07;;;5.00;;
11970;SDS011;6045;42.682;23.294;2024-01-06T13:56:31;14.10;;;5.63;;
11970;SDS011;6045;42.682;23.294;2024-01-06T13:58:58;9.23;;;5.15;;
11970;SDS011;6045;42.682;23.294;2024-01-06T14:01:25;6.45;;;4.70;;
11970;SDS011;6045;42.682;23.294;2024-01-06T14:03:53;6.78;;;4.72;;
11970;SDS011;6045;42.682;23.294;2024-01-06T14:06:23;8.60;;;4.90;;
11970;SDS011;6045;42.682;23.294;2024-01-06T14:08:50;7.15;;;4.82;;
11970;SDS011;6045;42.682;23.294;2024-01-06T14:11:18;8.80;;;4.95;;
11970;SDS011;6045;42.682;23.294;2024-01-06T14:13:48;10.40;;;5.38;;
11970;SDS011;6045;42.682;23.294;2024-01-06T14:16:16;5.80;;;4.50;;
11970;SDS011;6045;42.682;23.294;2024-01-06T14:18:44;9.48;;;5.10;;
11970;SDS011;6045;42.682;23.294;2024-01-06T14:21:12;7.78;;;5.35;;
11970;SDS011;6045;42.682;23.294;2024-01-06T14:23:40;8.65;;;5.22;;
11970;SDS011;6045;42.682;23.294;2024-01-06T14:26:07;9.40;;;5.28;;
11970;SDS011;6045;42.682;23.294;2024-01-06T14:28:34;6.97;;;4.55;;
11970;SDS011;6045;42.682;23.294;2024-01-06T14:31:01;9.95;;;5.55;;